Ana Sayfa
METAR-TAF:

METAR-TAF

Havaalanları :

Monticello Municipal Airport/Ellis Field

Monticello, Arkansas, Amerika Birleşik Devletleri

Enlem: 33-38-18N, Boylam: 091-45-04W, yükseklik: 82 m

Güncel hava durumu gözlemi

Rapor saat 22:53 UTC de 7 dakika önce yapıldı.
Rüzgar doğudan 6 kt
Sıcaklık 32°C
Nem 52%
Basınç 1021 hPa
Görüş mesafesi: 16.1 km
Açık gökyüzü

METAR: KLLQ 202253Z AUTO 09006KT 10SM CLR 32/21 A3016 RMK AO2 SLP211 T03170206

Saat: 18:00 (23:00 UTC)

Tahmin

Rapor saat 17:20 UTC de 5 saat ve 40 dakika önce yapıldı.
Ayın 20'si saat 18 UTC'den ayın 21'si saat 18 UTC'ye kadar geçerli Tahmin
Rüzgar doğudan 9 kt
Görüş mesafesi: 10 km
5000 ft yükseklikte az bulutlu
25000 ft yükseklikte parçalı bulutlu
Ayın 21'si saat 0300 UTC'den
Rüzgar değişken yönden 3 kt
Görüş mesafesi: 10 km
25000 ft yükseklikte parçalı bulutlu

TAF: KLLQ 201720Z 2018/2118 09009KT P6SM FEW050 SCT250 FM210300 VRB03KT P6SM SCT250

4.000'den fazla havaalanı için hava durumu gözlemleri ve tahminleri (METAR ve TAF raporları).

Kullanılabilir istasyonlar harita üzerinde sarı ve kırmızı noktalarla gösterilir.

İstasyonun adını görmek için fareyi noktanın üzerinde gezdirin.

Sonrasında hava gözlem ve tahminlerini görmek için tıklayın.

Haritayı değiştirmek için: yaklaştırmak için siyah artı işaretli yeşil düğmeye ve uzaklaştırmak için de eksi işaretli düğmeye hızla tıklayın; bitişik haritalar için yeşil okları kullanın.


METAR-TAF: